Time;durP1;ratioP1;P1;durP2;ratioP2;P2;SDS_P1;SDS_P2;PMS_P1;PMS_P2;Temp;Humidity;BMP_temperature;BMP_pressure;BME280_temperature;BME280_humidity;BME280_pressure;Samples;Min_cycle;Max_cycle;Signal;HPM_P1;HPM_P2
2022/06/25 00:01:10;;;;;;;19.60;17.52;;;;;;;;;;5069942;28;20032;-78
2022/06/25 00:03:37;;;;;;;19.83;17.48;;;;;;;;;;5058357;28;20123;-78
2022/06/25 00:06:03;;;;;;;18.63;16.73;;;;;;;;;;5080764;28;20127;-78
2022/06/25 00:08:29;;;;;;;21.40;17.50;;;;;;;;;;5066519;28;20355;-78
2022/06/25 00:10:55;;;;;;;19.27;17.17;;;;;;;;;;5056933;28;20033;-78
2022/06/25 00:13:22;;;;;;;19.02;17.02;;;;;;;;;;5068488;28;20045;-78
2022/06/25 00:15:49;;;;;;;21.33;16.58;;;;;;;;;;5062053;28;20044;-78
2022/06/25 00:18:15;;;;;;;19.77;17.77;;;;;;;;;;5060275;28;20521;-78
2022/06/25 00:20:42;;;;;;;20.40;18.23;;;;;;;;;;5086206;28;20063;-78
2022/06/25 00:23:08;;;;;;;22.33;20.02;;;;;;;;;;5073923;28;20102;-78
2022/06/25 00:25:35;;;;;;;20.85;18.48;;;;;;;;;;5064004;28;20040;-78
2022/06/25 00:28:01;;;;;;;19.60;17.48;;;;;;;;;;5069191;28;20131;-78
2022/06/25 00:30:28;;;;;;;20.20;17.67;;;;;;;;;;5069215;28;20048;-78
2022/06/25 00:32:54;;;;;;;25.15;21.02;;;;;;;;;;5068653;28;20121;-78
2022/06/25 00:35:20;;;;;;;20.80;18.60;;;;;;;;;;5076833;28;20074;-78
2022/06/25 00:37:47;;;;;;;20.15;18.15;;;;;;;;;;5077921;28;20086;-78
2022/06/25 00:40:13;;;;;;;21.17;18.98;;;;;;;;;;5067754;28;20047;-78
2022/06/25 00:42:43;;;;;;;19.27;17.25;;;;;;;;;;5073038;28;20108;-78
2022/06/25 00:45:09;;;;;;;21.80;18.08;;;;;;;;;;5065683;28;20036;-79
2022/06/25 00:47:35;;;;;;;20.27;18.13;;;;;;;;;;5063400;28;20043;-78
2022/06/25 00:50:02;;;;;;;20.45;18.35;;;;;;;;;;5057498;28;20466;-78
2022/06/25 00:52:30;;;;;;;20.20;18.15;;;;;;;;;;5085495;28;20040;-78
2022/06/25 00:55:05;;;;;;;23.42;21.08;;;;;;;;;;5075770;28;20047;-79
2022/06/25 00:57:32;;;;;;;20.98;18.75;;;;;;;;;;5060495;28;20079;-79
2022/06/25 01:00:01;;;;;;;19.80;17.70;;;;;;;;;;5068262;28;20103;-79
2022/06/25 01:02:28;;;;;;;21.15;18.60;;;;;;;;;;5053280;28;20047;-79
2022/06/25 01:04:54;;;;;;;21.23;18.67;;;;;;;;;;5068898;28;20111;-79
2022/06/25 01:07:20;;;;;;;19.30;17.30;;;;;;;;;;5052110;28;20041;-79
2022/06/25 01:09:51;;;;;;;20.42;17.33;;;;;;;;;;5084329;28;20043;-79
2022/06/25 01:12:17;;;;;;;26.83;20.40;;;;;;;;;;5072336;28;20119;-79
2022/06/25 01:14:44;;;;;;;18.85;16.85;;;;;;;;;;5080909;28;20522;-79
2022/06/25 01:17:10;;;;;;;19.70;17.70;;;;;;;;;;5080293;28;20063;-79
2022/06/25 01:19:37;;;;;;;18.83;16.63;;;;;;;;;;5056253;28;20530;-79
2022/06/25 01:22:04;;;;;;;19.38;15.07;;;;;;;;;;5068090;28;20077;-79
2022/06/25 01:24:31;;;;;;;20.17;16.88;;;;;;;;;;5058921;28;20032;-78
2022/06/25 01:26:58;;;;;;;17.88;15.32;;;;;;;;;;5076985;28;20526;-79
2022/06/25 01:29:24;;;;;;;20.23;16.83;;;;;;;;;;5067236;28;20044;-79
2022/06/25 01:31:51;;;;;;;17.75;14.35;;;;;;;;;;5071803;28;20051;-79
2022/06/25 01:34:18;;;;;;;17.67;15.77;;;;;;;;;;5081210;28;20040;-78
2022/06/25 01:36:44;;;;;;;18.40;16.45;;;;;;;;;;5061707;28;20139;-78
2022/06/25 01:39:10;;;;;;;17.73;16.00;;;;;;;;;;5073005;28;20573;-79
2022/06/25 01:41:46;;;;;;;18.92;16.15;;;;;;;;;;5070357;28;20040;-79
2022/06/25 01:44:12;;;;;;;15.73;13.70;;;;;;;;;;5080355;28;20048;-78
2022/06/25 01:46:38;;;;;;;16.27;13.55;;;;;;;;;;5068304;28;20400;-78
2022/06/25 01:49:04;;;;;;;15.13;13.00;;;;;;;;;;5066597;28;20036;-78
2022/06/25 01:51:30;;;;;;;17.33;14.80;;;;;;;;;;5054918;28;20305;-78
2022/06/25 01:53:56;;;;;;;16.88;15.13;;;;;;;;;;5081237;28;20410;-78
2022/06/25 01:56:23;;;;;;;15.05;13.40;;;;;;;;;;5061723;28;20036;-78
2022/06/25 01:58:49;;;;;;;16.60;14.82;;;;;;;;;;5056641;28;20222;-78
2022/06/25 02:01:15;;;;;;;13.80;12.40;;;;;;;;;;5062784;28;20364;-78
2022/06/25 02:03:47;;;;;;;16.75;14.95;;;;;;;;;;5064937;28;20048;-78
2022/06/25 02:06:13;;;;;;;15.05;13.52;;;;;;;;;;5078533;28;20036;-78
2022/06/25 02:08:40;;;;;;;14.02;12.52;;;;;;;;;;5056556;28;20048;-77
2022/06/25 02:11:07;;;;;;;15.30;13.70;;;;;;;;;;5066983;28;20069;-77
2022/06/25 02:13:34;;;;;;;16.38;14.13;;;;;;;;;;5057451;28;20553;-78
2022/06/25 02:16:00;;;;;;;13.32;11.93;;;;;;;;;;5060543;28;20201;-78
2022/06/25 02:18:27;;;;;;;16.90;12.80;;;;;;;;;;5065008;28;20044;-77
2022/06/25 02:20:53;;;;;;;14.25;12.85;;;;;;;;;;5071231;28;20081;-78
2022/06/25 02:23:20;;;;;;;18.88;14.00;;;;;;;;;;5081930;28;20051;-77
2022/06/25 02:25:47;;;;;;;15.30;13.70;;;;;;;;;;5077571;28;20043;-78
2022/06/25 02:28:13;;;;;;;14.15;12.65;;;;;;;;;;5073403;28;20044;-77
2022/06/25 02:30:40;;;;;;;14.40;12.68;;;;;;;;;;5066937;28;20051;-77
2022/06/25 02:33:11;;;;;;;14.55;13.00;;;;;;;;;;5072950;28;20394;-77
2022/06/25 02:35:39;;;;;;;16.20;13.02;;;;;;;;;;5060110;28;20064;-78
2022/06/25 02:38:05;;;;;;;13.23;11.82;;;;;;;;;;5064553;28;20395;-77
2022/06/25 02:40:32;;;;;;;14.40;12.35;;;;;;;;;;5054078;28;20036;-77
2022/06/25 02:42:58;;;;;;;16.77;14.05;;;;;;;;;;5081680;28;20305;-77
2022/06/25 02:45:24;;;;;;;16.33;13.18;;;;;;;;;;5076992;28;20039;-77
2022/06/25 02:47:51;;;;;;;15.88;13.13;;;;;;;;;;5073587;28;20131;-77
2022/06/25 02:50:17;;;;;;;14.32;12.82;;;;;;;;;;5083058;28;20054;-77
2022/06/25 02:52:43;;;;;;;17.77;15.45;;;;;;;;;;5050658;28;20044;-77
2022/06/25 02:55:09;;;;;;;16.45;13.57;;;;;;;;;;5050486;28;20044;-77
2022/06/25 03:00:21;;;;;;;16.35;14.65;;;;;;;;;;5070985;28;20090;-77
2022/06/25 03:02:48;;;;;;;15.75;14.00;;;;;;;;;;5063041;28;20041;-77
2022/06/25 03:05:14;;;;;;;16.52;13.98;;;;;;;;;;5077651;28;20089;-76
2022/06/25 03:07:40;;;;;;;15.13;13.52;;;;;;;;;;5087314;28;20504;-76
2022/06/25 03:10:07;;;;;;;15.77;14.05;;;;;;;;;;5070726;28;20076;-77
2022/06/25 03:12:33;;;;;;;15.85;14.25;;;;;;;;;;5080570;28;20388;-77
2022/06/25 03:14:59;;;;;;;16.88;14.52;;;;;;;;;;5060459;28;20051;-77
2022/06/25 03:17:25;;;;;;;17.38;15.57;;;;;;;;;;5082031;28;20044;-77
2022/06/25 03:19:52;;;;;;;23.15;16.13;;;;;;;;;;5070619;28;20044;-77
2022/06/25 03:22:18;;;;;;;17.52;14.48;;;;;;;;;;5081421;28;20036;-76
2022/06/25 03:24:44;;;;;;;16.30;14.60;;;;;;;;;;5076659;28;20032;-76
2022/06/25 03:27:10;;;;;;;16.50;13.60;;;;;;;;;;5056499;28;20075;-76
2022/06/25 03:29:37;;;;;;;16.50;14.80;;;;;;;;;;5066101;28;20040;-76
2022/06/25 03:32:03;;;;;;;17.98;15.93;;;;;;;;;;5066951;28;20049;-76
2022/06/25 03:34:29;;;;;;;15.63;13.75;;;;;;;;;;5058857;28;20051;-76
2022/06/25 03:36:55;;;;;;;18.25;16.35;;;;;;;;;;5056979;28;20057;-76
2022/06/25 03:39:21;;;;;;;18.83;16.50;;;;;;;;;;5066323;28;20181;-76
2022/06/25 03:41:48;;;;;;;18.90;16.33;;;;;;;;;;5070796;28;20036;-76
2022/06/25 03:44:14;;;;;;;20.95;16.27;;;;;;;;;;5061874;28;20048;-76
2022/06/25 03:46:40;;;;;;;20.95;16.38;;;;;;;;;;5079147;28;20052;-76
2022/06/25 03:49:07;;;;;;;18.42;16.63;;;;;;;;;;5053657;28;20040;-76
2022/06/25 03:51:33;;;;;;;19.80;17.70;;;;;;;;;;5066020;28;20097;-76
2022/06/25 03:53:59;;;;;;;19.92;17.85;;;;;;;;;;5057329;28;20048;-76
2022/06/25 03:56:25;;;;;;;21.80;18.17;;;;;;;;;;5075094;28;20036;-77
2022/06/25 03:58:52;;;;;;;18.48;16.58;;;;;;;;;;5065060;28;20040;-78
2022/06/25 04:01:18;;;;;;;20.10;17.80;;;;;;;;;;5055196;28;20101;-77
2022/06/25 04:03:44;;;;;;;18.70;16.70;;;;;;;;;;5083552;28;20041;-77
2022/06/25 04:06:10;;;;;;;21.17;17.17;;;;;;;;;;5070023;28;20048;-77
2022/06/25 04:08:37;;;;;;;18.17;16.17;;;;;;;;;;5053158;28;20037;-77
2022/06/25 04:11:03;;;;;;;18.10;16.20;;;;;;;;;;5069601;28;20090;-78
2022/06/25 04:13:30;;;;;;;20.52;17.95;;;;;;;;;;5075983;28;20043;-77
2022/06/25 04:15:56;;;;;;;21.67;18.92;;;;;;;;;;5080167;28;20044;-77
2022/06/25 04:18:22;;;;;;;23.33;20.55;;;;;;;;;;5083598;28;20067;-76
2022/06/25 04:20:48;;;;;;;20.20;18.08;;;;;;;;;;5056496;28;20037;-77
2022/06/25 04:23:15;;;;;;;20.27;17.48;;;;;;;;;;5084198;28;20036;-77
2022/06/25 04:25:41;;;;;;;19.13;16.02;;;;;;;;;;5062062;28;20043;-77
2022/06/25 04:30:52;;;;;;;22.40;18.92;;;;;;;;;;5086726;28;20044;-77
2022/06/25 04:33:18;;;;;;;18.80;16.80;;;;;;;;;;5065207;28;20128;-77
2022/06/25 04:35:44;;;;;;;20.05;17.95;;;;;;;;;;5064029;28;20052;-77
2022/06/25 04:38:11;;;;;;;19.52;16.20;;;;;;;;;;5057154;28;20403;-76
2022/06/25 04:40:37;;;;;;;19.83;17.77;;;;;;;;;;5085374;28;20037;-77
2022/06/25 04:43:03;;;;;;;20.70;18.00;;;;;;;;;;5059347;28;20554;-77
2022/06/25 04:45:29;;;;;;;22.60;20.25;;;;;;;;;;5078892;28;20040;-77
2022/06/25 04:48:02;;;;;;;19.45;17.35;;;;;;;;;;5067089;28;20032;-77
2022/06/25 04:50:28;;;;;;;22.42;20.02;;;;;;;;;;5056202;28;20044;-77
2022/06/25 04:52:54;;;;;;;22.27;19.00;;;;;;;;;;5082019;28;20045;-77
2022/06/25 04:55:21;;;;;;;21.27;18.98;;;;;;;;;;5080006;28;20040;-77
2022/06/25 04:57:47;;;;;;;19.25;16.45;;;;;;;;;;5057444;28;20037;-77
2022/06/25 05:00:13;;;;;;;20.90;18.67;;;;;;;;;;5064382;28;20047;-77
2022/06/25 05:02:40;;;;;;;20.05;17.67;;;;;;;;;;5057467;28;20123;-77
2022/06/25 05:05:07;;;;;;;18.60;16.60;;;;;;;;;;5086678;28;20074;-77
2022/06/25 05:07:33;;;;;;;18.75;16.75;;;;;;;;;;5070732;28;20048;-77
2022/06/25 05:09:59;;;;;;;21.50;17.10;;;;;;;;;;5053236;28;20110;-78
2022/06/25 05:15:10;;;;;;;21.83;19.52;;;;;;;;;;5086609;28;20055;-78
2022/06/25 05:17:36;;;;;;;19.85;17.65;;;;;;;;;;5067373;28;20745;-78
2022/06/25 05:20:03;;;;;;;22.73;18.30;;;;;;;;;;5073316;28;20040;-77
2022/06/25 05:22:29;;;;;;;22.15;19.42;;;;;;;;;;5090273;28;20207;-78
2022/06/25 05:24:55;;;;;;;21.58;17.75;;;;;;;;;;5078454;28;20044;-78
2022/06/25 05:27:23;;;;;;;19.70;17.65;;;;;;;;;;5053458;28;20040;-78
2022/06/25 05:29:49;;;;;;;20.23;17.05;;;;;;;;;;5069503;28;20581;-77
2022/06/25 05:32:15;;;;;;;22.92;17.80;;;;;;;;;;5075197;28;20082;-78
2022/06/25 05:34:42;;;;;;;18.70;15.95;;;;;;;;;;5060724;28;20384;-77
2022/06/25 05:37:08;;;;;;;17.67;15.45;;;;;;;;;;5060760;28;20424;-77
2022/06/25 05:39:34;;;;;;;17.98;16.08;;;;;;;;;;5076150;28;20439;-77
2022/06/25 05:42:00;;;;;;;15.98;14.27;;;;;;;;;;5076721;28;20499;-77
2022/06/25 05:44:26;;;;;;;16.95;15.07;;;;;;;;;;5078200;28;20044;-77
2022/06/25 05:46:53;;;;;;;18.92;15.60;;;;;;;;;;5073930;28;20093;-76
2022/06/25 05:49:19;;;;;;;17.25;15.27;;;;;;;;;;5077155;28;20092;-77
2022/06/25 05:51:46;;;;;;;17.80;14.32;;;;;;;;;;5061582;28;20052;-76
2022/06/25 05:54:12;;;;;;;18.63;14.40;;;;;;;;;;5077771;28;20040;-76
2022/06/25 05:56:38;;;;;;;13.65;12.10;;;;;;;;;;5060745;28;20040;-76
2022/06/25 05:59:04;;;;;;;17.15;14.77;;;;;;;;;;5065787;28;20494;-76
2022/06/25 06:01:30;;;;;;;16.23;13.63;;;;;;;;;;5072775;28;20109;-78
2022/06/25 06:03:56;;;;;;;14.35;12.77;;;;;;;;;;5077087;28;20042;-77
2022/06/25 06:06:22;;;;;;;15.40;13.15;;;;;;;;;;5085548;28;20410;-77
2022/06/25 06:08:49;;;;;;;15.13;12.40;;;;;;;;;;5073061;28;20043;-77
2022/06/25 06:11:15;;;;;;;14.57;12.32;;;;;;;;;;5054652;28;20040;-77
2022/06/25 06:13:41;;;;;;;15.10;13.50;;;;;;;;;;5074253;28;20548;-76
2022/06/25 06:16:07;;;;;;;19.10;13.65;;;;;;;;;;5053174;28;20040;-77
2022/06/25 06:18:33;;;;;;;15.48;13.18;;;;;;;;;;5067266;28;20557;-76
2022/06/25 06:21:00;;;;;;;15.00;12.35;;;;;;;;;;5075456;28;20466;-77
2022/06/25 06:23:26;;;;;;;16.45;12.35;;;;;;;;;;5058091;28;20032;-78
2022/06/25 06:25:52;;;;;;;16.30;13.18;;;;;;;;;;5077740;28;20039;-78
2022/06/25 06:28:18;;;;;;;13.32;11.45;;;;;;;;;;5060897;28;20089;-77
2022/06/25 06:30:46;;;;;;;15.75;12.55;;;;;;;;;;5058533;28;20047;-77
2022/06/25 06:33:12;;;;;;;16.23;11.70;;;;;;;;;;5077669;28;20082;-79
2022/06/25 06:35:38;;;;;;;17.25;10.23;;;;;;;;;;5059648;28;20448;-78
2022/06/25 06:38:04;;;;;;;11.77;9.00;;;;;;;;;;5056507;28;20047;-80
2022/06/25 06:40:31;;;;;;;13.20;10.35;;;;;;;;;;5059858;28;20068;-79
2022/06/25 06:42:57;;;;;;;13.90;10.43;;;;;;;;;;5073121;28;20044;-78
2022/06/25 06:45:23;;;;;;;15.05;9.93;;;;;;;;;;5061526;28;20028;-78
2022/06/25 06:47:49;;;;;;;15.35;9.15;;;;;;;;;;5062378;28;20037;-78
2022/06/25 06:50:15;;;;;;;11.90;8.68;;;;;;;;;;5077528;28;20036;-77
2022/06/25 06:52:42;;;;;;;12.38;8.93;;;;;;;;;;5055750;28;20036;-77
2022/06/25 06:55:08;;;;;;;11.70;8.38;;;;;;;;;;5076199;28;20043;-77
2022/06/25 06:57:35;;;;;;;12.45;9.07;;;;;;;;;;5077797;28;20135;-78
2022/06/25 07:00:01;;;;;;;11.77;8.68;;;;;;;;;;5080454;28;20125;-78
2022/06/25 07:02:28;;;;;;;11.90;8.88;;;;;;;;;;5057382;28;20644;-78
2022/06/25 07:04:54;;;;;;;11.13;7.43;;;;;;;;;;5052118;28;20037;-76
2022/06/25 07:07:20;;;;;;;11.55;7.38;;;;;;;;;;5074478;28;20037;-76
2022/06/25 07:09:46;;;;;;;11.02;8.07;;;;;;;;;;5078996;28;20418;-76
2022/06/25 07:12:12;;;;;;;12.00;7.20;;;;;;;;;;5075934;28;20040;-77
2022/06/25 07:14:38;;;;;;;10.88;6.63;;;;;;;;;;5078378;28;20078;-76
2022/06/25 07:17:05;;;;;;;10.05;6.22;;;;;;;;;;5086238;28;20043;-76
2022/06/25 07:19:31;;;;;;;14.05;7.43;;;;;;;;;;5087599;28;20039;-75
2022/06/25 07:21:57;;;;;;;9.27;6.43;;;;;;;;;;5062204;28;20029;-76
2022/06/25 07:24:24;;;;;;;8.55;6.13;;;;;;;;;;5076073;28;20032;-77
2022/06/25 07:26:50;;;;;;;14.15;6.10;;;;;;;;;;5075417;28;20464;-76
2022/06/25 07:29:17;;;;;;;10.88;5.00;;;;;;;;;;5061780;28;20032;-79
2022/06/25 07:31:43;;;;;;;6.47;4.60;;;;;;;;;;5078207;28;20105;-76
2022/06/25 07:34:09;;;;;;;9.73;5.30;;;;;;;;;;5077060;28;20060;-77
2022/06/25 07:36:35;;;;;;;7.72;4.85;;;;;;;;;;5085307;28;20059;-76
2022/06/25 07:39:02;;;;;;;7.30;4.28;;;;;;;;;;5064371;28;20491;-76
2022/06/25 07:41:28;;;;;;;8.98;4.40;;;;;;;;;;5078342;28;20040;-77
2022/06/25 07:43:55;;;;;;;10.45;4.60;;;;;;;;;;5082123;28;20506;-75
2022/06/25 07:46:21;;;;;;;7.93;4.47;;;;;;;;;;5084506;28;20449;-78
2022/06/25 07:48:47;;;;;;;7.68;4.20;;;;;;;;;;5082750;28;20075;-77
2022/06/25 07:53:58;;;;;;;8.13;4.38;;;;;;;;;;5080942;28;20059;-78
2022/06/25 07:56:24;;;;;;;10.00;4.07;;;;;;;;;;5089231;28;20120;-78
2022/06/25 07:58:50;;;;;;;11.60;4.72;;;;;;;;;;5073027;28;20074;-76
2022/06/25 08:01:16;;;;;;;7.47;3.90;;;;;;;;;;5073270;28;20422;-77
2022/06/25 08:03:43;;;;;;;9.88;4.05;;;;;;;;;;5090085;28;20040;-78
2022/06/25 08:06:10;;;;;;;6.90;3.60;;;;;;;;;;5070507;28;20032;-78
2022/06/25 08:08:36;;;;;;;6.93;3.65;;;;;;;;;;5088487;28;20078;-80
2022/06/25 08:11:03;;;;;;;8.23;3.50;;;;;;;;;;5088374;28;20043;-79
2022/06/25 08:13:29;;;;;;;9.00;3.50;;;;;;;;;;5077579;28;20126;-80
2022/06/25 08:15:55;;;;;;;8.85;3.60;;;;;;;;;;5084921;28;20040;-79
2022/06/25 08:18:22;;;;;;;7.60;4.30;;;;;;;;;;5080013;28;20557;-80
2022/06/25 08:20:49;;;;;;;7.57;4.47;;;;;;;;;;5080829;28;20496;-79
2022/06/25 08:23:16;;;;;;;7.07;3.70;;;;;;;;;;5063096;28;20071;-79
2022/06/25 08:25:42;;;;;;;5.35;3.83;;;;;;;;;;5069715;28;20114;-80
2022/06/25 08:28:09;;;;;;;7.82;3.75;;;;;;;;;;5069357;28;20123;-80
2022/06/25 08:30:35;;;;;;;7.40;3.60;;;;;;;;;;5071202;28;20291;-78
2022/06/25 08:33:02;;;;;;;7.07;3.85;;;;;;;;;;5077516;28;20044;-77
2022/06/25 08:35:28;;;;;;;8.98;3.92;;;;;;;;;;5079698;28;20041;-77
2022/06/25 08:37:56;;;;;;;6.50;3.75;;;;;;;;;;5083235;28;20048;-78
2022/06/25 08:40:22;;;;;;;9.55;3.80;;;;;;;;;;5056507;28;20137;-78
2022/06/25 08:42:49;;;;;;;9.82;3.80;;;;;;;;;;5069416;28;20075;-79
2022/06/25 08:45:17;;;;;;;7.03;3.65;;;;;;;;;;5062829;28;20035;-78
2022/06/25 08:47:47;;;;;;;9.57;3.80;;;;;;;;;;5083350;28;20526;-78
2022/06/25 08:50:14;;;;;;;6.18;3.20;;;;;;;;;;5071204;28;20407;-76
2022/06/25 08:52:43;;;;;;;11.48;3.88;;;;;;;;;;5055076;28;20032;-77
2022/06/25 08:55:10;;;;;;;11.20;4.15;;;;;;;;;;5062526;28;20487;-77
2022/06/25 08:57:36;;;;;;;15.60;4.50;;;;;;;;;;5073862;28;20068;-79
2022/06/25 09:00:03;;;;;;;6.60;3.42;;;;;;;;;;5081705;28;20074;-78
2022/06/25 09:02:30;;;;;;;9.48;4.22;;;;;;;;;;5078375;28;20039;-78
2022/06/25 09:04:56;;;;;;;8.65;3.75;;;;;;;;;;5079348;28;20032;-78
2022/06/25 09:07:22;;;;;;;6.43;3.22;;;;;;;;;;5058887;28;20090;-78
2022/06/25 09:09:49;;;;;;;8.15;3.15;;;;;;;;;;5085007;28;20067;-79
2022/06/25 09:12:16;;;;;;;5.97;3.10;;;;;;;;;;5073489;28;20130;-78
2022/06/25 09:14:45;;;;;;;6.25;3.08;;;;;;;;;;5081046;28;20032;-78
2022/06/25 09:17:12;;;;;;;4.60;2.80;;;;;;;;;;5061036;28;20142;-78
2022/06/25 09:19:40;;;;;;;6.35;2.63;;;;;;;;;;5080264;28;20043;-78
2022/06/25 09:22:07;;;;;;;6.07;2.90;;;;;;;;;;5077816;28;20108;-79
2022/06/25 09:24:48;;;;;;;5.50;2.63;;;;;;;;;;5079013;28;20173;-79
2022/06/25 09:27:16;;;;;;;8.32;3.30;;;;;;;;;;5062188;28;20058;-78
2022/06/25 09:29:48;;;;;;;8.15;2.75;;;;;;;;;;5081506;28;20039;-78
2022/06/25 09:32:15;;;;;;;3.90;2.60;;;;;;;;;;5054408;28;20425;-78
2022/06/25 09:34:42;;;;;;;9.55;2.90;;;;;;;;;;5066326;28;20123;-78
2022/06/25 09:37:16;;;;;;;7.55;3.10;;;;;;;;;;5071083;28;20055;-78
2022/06/25 09:39:42;;;;;;;7.15;3.00;;;;;;;;;;5069925;28;20514;-79
2022/06/25 09:42:19;;;;;;;7.55;2.88;;;;;;;;;;5071216;28;20039;-78
2022/06/25 09:44:46;;;;;;;4.43;2.67;;;;;;;;;;5078764;28;20033;-79
2022/06/25 09:47:13;;;;;;;7.43;2.97;;;;;;;;;;5066828;28;20043;-77
2022/06/25 09:49:40;;;;;;;6.70;2.78;;;;;;;;;;5083318;28;20041;-77
2022/06/25 09:52:07;;;;;;;5.65;2.53;;;;;;;;;;5077041;28;20037;-77
2022/06/25 09:54:33;;;;;;;5.97;2.35;;;;;;;;;;5081119;28;20131;-79
2022/06/25 09:57:00;;;;;;;4.13;2.60;;;;;;;;;;5059871;28;20044;-78
2022/06/25 09:59:30;;;;;;;8.88;2.90;;;;;;;;;;5065852;28;20558;-79
2022/06/25 10:01:56;;;;;;;7.38;2.85;;;;;;;;;;5077165;28;20032;-78
2022/06/25 10:04:23;;;;;;;5.70;2.80;;;;;;;;;;5075356;28;20063;-78
2022/06/25 10:06:50;;;;;;;5.95;2.95;;;;;;;;;;5067384;28;20040;-78
2022/06/25 10:09:16;;;;;;;4.95;2.63;;;;;;;;;;5055668;28;20036;-79
2022/06/25 10:11:43;;;;;;;5.57;2.63;;;;;;;;;;5062291;28;20036;-78
2022/06/25 10:14:10;;;;;;;7.80;2.95;;;;;;;;;;5063829;28;20538;-80
2022/06/25 10:16:36;;;;;;;6.15;2.80;;;;;;;;;;5054365;28;20040;-78
2022/06/25 10:19:03;;;;;;;4.25;2.47;;;;;;;;;;5066685;28;20462;-77
2022/06/25 10:21:29;;;;;;;4.45;2.53;;;;;;;;;;5075494;28;20036;-78
2022/06/25 10:23:57;;;;;;;5.50;2.70;;;;;;;;;;5058898;28;20395;-79
2022/06/25 10:26:24;;;;;;;5.70;2.28;;;;;;;;;;5083565;28;20097;-76
2022/06/25 10:28:50;;;;;;;5.00;2.20;;;;;;;;;;5071115;28;20072;-78
2022/06/25 10:31:17;;;;;;;7.45;2.40;;;;;;;;;;5088367;28;20459;-77
2022/06/25 10:33:58;;;;;;;5.03;2.15;;;;;;;;;;5076273;28;20044;-78
2022/06/25 10:36:39;;;;;;;5.18;2.30;;;;;;;;;;5052154;28;20344;-78
2022/06/25 10:39:24;;;;;;;6.75;2.63;;;;;;;;;;5063039;28;20048;-78
2022/06/25 10:44:54;;;;;;;4.63;2.33;;;;;;;;;;5073683;28;20048;-78
2022/06/25 10:47:36;;;;;;;8.77;2.70;;;;;;;;;;5077893;28;20035;-78
2022/06/25 10:50:21;;;;;;;5.40;2.60;;;;;;;;;;5069122;28;20041;-77
2022/06/25 10:55:35;;;;;;;5.78;2.60;;;;;;;;;;5080144;28;20072;-76
2022/06/25 10:58:10;;;;;;;4.57;2.45;;;;;;;;;;5070523;28;20101;-77
2022/06/25 11:00:52;;;;;;;6.97;2.75;;;;;;;;;;5080941;28;20491;-78
2022/06/25 11:03:44;;;;;;;5.95;2.45;;;;;;;;;;5079597;28;20036;-77
2022/06/25 11:06:21;;;;;;;7.75;2.50;;;;;;;;;;5067536;28;20048;-78
2022/06/25 11:08:49;;;;;;;6.10;2.45;;;;;;;;;;5077811;28;20123;-77
2022/06/25 11:11:24;;;;;;;4.55;2.60;;;;;;;;;;5083660;28;20071;-78
2022/06/25 11:13:50;;;;;;;4.93;2.10;;;;;;;;;;5074507;28;20076;-76
2022/06/25 11:16:17;;;;;;;6.18;2.50;;;;;;;;;;5085436;28;20119;-77
2022/06/25 11:18:50;;;;;;;6.43;2.63;;;;;;;;;;5058335;28;20039;-76
2022/06/25 11:21:34;;;;;;;6.38;2.40;;;;;;;;;;5073546;28;20090;-77
2022/06/25 11:24:19;;;;;;;6.63;2.40;;;;;;;;;;5075608;28;20040;-77
2022/06/25 11:29:34;;;;;;;4.75;2.55;;;;;;;;;;5087298;28;20047;-78
2022/06/25 11:32:00;;;;;;;5.07;2.63;;;;;;;;;;5076857;28;20384;-78
2022/06/25 11:34:28;;;;;;;4.55;2.10;;;;;;;;;;5064884;28;20079;-77
2022/06/25 11:37:05;;;;;;;4.22;2.30;;;;;;;;;;5076278;28;20123;-78
2022/06/25 11:39:31;;;;;;;4.93;2.13;;;;;;;;;;5068234;28;20507;-78
2022/06/25 11:41:58;;;;;;;5.53;2.65;;;;;;;;;;5053600;28;20098;-78
2022/06/25 11:44:24;;;;;;;3.20;2.05;;;;;;;;;;5079118;28;20488;-76
2022/06/25 11:46:51;;;;;;;4.50;2.10;;;;;;;;;;5054014;28;20037;-78
2022/06/25 11:49:20;;;;;;;5.30;2.38;;;;;;;;;;5086781;28;20142;-77
2022/06/25 11:51:48;;;;;;;6.30;2.08;;;;;;;;;;5077661;28;20071;-78
2022/06/25 11:54:15;;;;;;;3.30;2.28;;;;;;;;;;5092031;28;20119;-78
2022/06/25 11:56:48;;;;;;;4.80;2.47;;;;;;;;;;5065773;28;20040;-78
2022/06/25 11:59:15;;;;;;;5.18;2.05;;;;;;;;;;5080009;28;20041;-78
2022/06/25 12:01:41;;;;;;;3.75;2.00;;;;;;;;;;5064213;28;20395;-78
2022/06/25 12:04:08;;;;;;;6.72;2.40;;;;;;;;;;5065587;28;20047;-77
2022/06/25 12:06:34;;;;;;;4.75;2.22;;;;;;;;;;5058235;28;20391;-78
2022/06/25 12:09:00;;;;;;;5.00;2.10;;;;;;;;;;5053804;28;20503;-79
2022/06/25 12:11:28;;;;;;;5.10;2.25;;;;;;;;;;5076825;28;20122;-78
2022/06/25 12:13:55;;;;;;;5.20;2.15;;;;;;;;;;5078960;28;20051;-78
2022/06/25 12:16:21;;;;;;;4.30;1.80;;;;;;;;;;5067899;28;20503;-78
2022/06/25 12:18:47;;;;;;;4.40;2.33;;;;;;;;;;5073407;28;20037;-78
2022/06/25 12:21:19;;;;;;;6.07;2.03;;;;;;;;;;5082632;28;20168;-78
2022/06/25 12:23:56;;;;;;;3.97;2.20;;;;;;;;;;5081078;28;20073;-78
2022/06/25 12:26:32;;;;;;;6.85;2.20;;;;;;;;;;5056819;28;20041;-78
2022/06/25 12:29:10;;;;;;;5.60;2.00;;;;;;;;;;5054700;28;20051;-78
2022/06/25 12:31:37;;;;;;;5.65;1.92;;;;;;;;;;5063643;28;20482;-78
2022/06/25 12:34:04;;;;;;;4.60;2.10;;;;;;;;;;5074651;28;20067;-79
2022/06/25 12:36:30;;;;;;;4.35;2.20;;;;;;;;;;5085875;28;20058;-78
2022/06/25 12:38:56;;;;;;;5.07;2.15;;;;;;;;;;5075817;28;20094;-78
2022/06/25 12:41:42;;;;;;;6.55;2.50;;;;;;;;;;5062414;28;20044;-78
2022/06/25 12:44:12;;;;;;;5.50;2.47;;;;;;;;;;5068637;28;20286;-78
2022/06/25 12:46:39;;;;;;;4.95;2.60;;;;;;;;;;5074595;28;20120;-78
2022/06/25 12:49:05;;;;;;;5.93;2.70;;;;;;;;;;5064187;28;20526;-77
2022/06/25 12:51:31;;;;;;;5.60;2.58;;;;;;;;;;5082202;28;20249;-79
2022/06/25 12:54:00;;;;;;;5.03;2.90;;;;;;;;;;5055994;28;20044;-77
2022/06/25 12:56:26;;;;;;;5.38;2.85;;;;;;;;;;5052875;28;20080;-78
2022/06/25 12:58:52;;;;;;;7.07;3.03;;;;;;;;;;5060421;28;20635;-78
2022/06/25 13:01:20;;;;;;;5.22;2.85;;;;;;;;;;5076081;28;20040;-78
2022/06/25 13:03:46;;;;;;;7.35;2.92;;;;;;;;;;5068286;28;20282;-78
2022/06/25 13:06:12;;;;;;;5.53;2.50;;;;;;;;;;5073127;28;20123;-78
2022/06/25 13:08:38;;;;;;;6.75;3.38;;;;;;;;;;5064145;28;20037;-78
2022/06/25 13:11:05;;;;;;;7.32;3.10;;;;;;;;;;5064617;28;20039;-78
2022/06/25 13:13:32;;;;;;;4.55;2.60;;;;;;;;;;5056259;28;20074;-78
2022/06/25 13:16:00;;;;;;;4.65;2.70;;;;;;;;;;5068356;28;20041;-78
2022/06/25 13:18:26;;;;;;;6.47;3.25;;;;;;;;;;5060002;28;20100;-78
2022/06/25 13:20:53;;;;;;;5.90;3.15;;;;;;;;;;5060470;28;20036;-77
2022/06/25 13:23:19;;;;;;;4.43;2.75;;;;;;;;;;5084527;28;20047;-77
2022/06/25 13:25:45;;;;;;;4.32;3.10;;;;;;;;;;5068806;28;20098;-78
2022/06/25 13:28:11;;;;;;;6.13;3.00;;;;;;;;;;5058879;28;20130;-78
2022/06/25 13:30:38;;;;;;;5.53;2.90;;;;;;;;;;5089220;28;20044;-78
2022/06/25 13:33:04;;;;;;;4.72;2.90;;;;;;;;;;5056864;28;20082;-78
2022/06/25 13:35:30;;;;;;;5.60;3.03;;;;;;;;;;5085837;28;20402;-78
2022/06/25 13:37:56;;;;;;;5.40;2.85;;;;;;;;;;5074404;28;20048;-78
2022/06/25 13:40:23;;;;;;;5.13;2.88;;;;;;;;;;5078406;28;20434;-79
2022/06/25 13:42:49;;;;;;;3.85;2.67;;;;;;;;;;5082594;28;20039;-78
2022/06/25 13:45:15;;;;;;;6.05;2.95;;;;;;;;;;5055376;28;20049;-78
2022/06/25 13:47:41;;;;;;;4.95;2.90;;;;;;;;;;5065823;28;20113;-78
2022/06/25 13:50:08;;;;;;;3.55;2.65;;;;;;;;;;5060809;28;20054;-78
2022/06/25 13:52:37;;;;;;;5.72;3.35;;;;;;;;;;5089470;28;20510;-77
2022/06/25 13:55:03;;;;;;;4.97;3.00;;;;;;;;;;5055763;28;20048;-78
2022/06/25 13:57:30;;;;;;;4.75;2.80;;;;;;;;;;5065882;28;20041;-79
2022/06/25 13:59:56;;;;;;;5.82;3.40;;;;;;;;;;5077004;28;20035;-78
2022/06/25 14:02:22;;;;;;;5.47;3.55;;;;;;;;;;5074683;28;20037;-78
2022/06/25 14:04:48;;;;;;;5.38;3.10;;;;;;;;;;5067308;28;20032;-78
2022/06/25 14:07:14;;;;;;;6.53;3.20;;;;;;;;;;5051267;28;20044;-77
2022/06/25 14:09:40;;;;;;;6.05;3.22;;;;;;;;;;5052954;28;20127;-79
2022/06/25 14:12:08;;;;;;;5.43;2.92;;;;;;;;;;5053949;28;20037;-77
2022/06/25 14:14:34;;;;;;;7.38;3.30;;;;;;;;;;5069880;28;20214;-76
2022/06/25 14:17:01;;;;;;;4.13;2.95;;;;;;;;;;5052353;28;20044;-77
2022/06/25 14:19:27;;;;;;;6.75;3.10;;;;;;;;;;5060930;28;20442;-75
2022/06/25 14:21:54;;;;;;;6.75;2.85;;;;;;;;;;5069074;28;20110;-79
2022/06/25 14:27:08;;;;;;;3.63;2.63;;;;;;;;;;5069004;28;20131;-78
2022/06/25 14:29:35;;;;;;;4.75;2.92;;;;;;;;;;5052557;28;20036;-78
2022/06/25 14:32:01;;;;;;;4.65;2.78;;;;;;;;;;5069656;28;20425;-77
2022/06/25 14:34:27;;;;;;;5.03;3.05;;;;;;;;;;5071607;28;20034;-77
2022/06/25 14:42:23;;;;;;;3.70;2.58;;;;;;;;;;5071521;28;20424;-79
2022/06/25 14:44:59;;;;;;;5.10;2.30;;;;;;;;;;5065750;28;20044;-77
2022/06/25 14:47:26;;;;;;;4.60;2.50;;;;;;;;;;5069829;28;20036;-77
2022/06/25 14:49:53;;;;;;;4.10;2.70;;;;;;;;;;5061847;28;20379;-76
2022/06/25 14:52:19;;;;;;;6.20;2.40;;;;;;;;;;5069192;28;20055;-77
2022/06/25 14:54:45;;;;;;;4.25;2.35;;;;;;;;;;5064653;28;20055;-78
2022/06/25 14:57:12;;;;;;;4.43;2.30;;;;;;;;;;5089564;28;20689;-79
2022/06/25 14:59:38;;;;;;;5.15;2.20;;;;;;;;;;5064919;28;20407;-77